createdAt,value
2019-03-19T00:00:30.553Z,5.90
2019-03-19T00:02:59.713Z,8.33
2019-03-19T00:05:28.768Z,5.77
2019-03-19T00:07:57.850Z,3.10
2019-03-19T00:10:26.908Z,4.97
2019-03-19T00:12:55.986Z,5.77
2019-03-19T00:15:25.045Z,4.57
2019-03-19T00:17:54.123Z,7.67
2019-03-19T00:20:23.114Z,8.00
2019-03-19T00:22:52.204Z,11.40
2019-03-19T00:25:29.494Z,6.10
2019-03-19T00:27:52.082Z,8.23
2019-03-19T00:30:21.150Z,6.90
2019-03-19T00:32:50.230Z,8.90
2019-03-19T00:35:19.286Z,6.63
2019-03-19T00:37:48.369Z,6.23
2019-03-19T00:40:17.635Z,6.80
2019-03-19T00:42:46.631Z,7.53
2019-03-19T00:45:15.693Z,7.03
2019-03-19T00:47:44.811Z,5.67
2019-03-19T00:50:13.901Z,9.40
2019-03-19T00:52:42.982Z,7.63
2019-03-19T00:55:12.209Z,6.50
2019-03-19T00:57:41.289Z,4.90
2019-03-19T01:00:10.671Z,8.37
2019-03-19T01:02:39.746Z,7.63
2019-03-19T01:05:09.152Z,7.77
2019-03-19T01:07:38.226Z,6.17
2019-03-19T01:10:07.564Z,8.97
2019-03-19T01:12:36.630Z,8.20
2019-03-19T01:15:06.906Z,8.67
2019-03-19T01:17:35.966Z,11.47
2019-03-19T01:20:05.599Z,6.07
2019-03-19T01:22:35.124Z,5.90
2019-03-19T01:25:04.724Z,5.97
2019-03-19T01:27:33.893Z,7.63
2019-03-19T01:30:02.935Z,8.80
2019-03-19T01:32:32.009Z,9.00
2019-03-19T01:35:01.071Z,7.13
2019-03-19T01:37:30.089Z,11.40
2019-03-19T01:39:59.072Z,11.53
2019-03-19T01:42:28.075Z,5.73
2019-03-19T01:44:57.050Z,5.57
2019-03-19T01:47:26.142Z,7.30
2019-03-19T01:49:55.142Z,8.53
2019-03-19T01:52:24.162Z,7.77
2019-03-19T01:54:53.066Z,9.73
2019-03-19T01:57:22.077Z,12.37
2019-03-19T01:59:51.123Z,7.67
2019-03-19T02:02:20.215Z,11.63
2019-03-19T02:04:49.276Z,7.50
2019-03-19T02:07:18.365Z,5.83
2019-03-19T02:09:47.358Z,9.70
2019-03-19T02:12:16.442Z,7.57
2019-03-19T02:14:45.492Z,5.10
2019-03-19T02:17:14.574Z,4.43
2019-03-19T02:19:43.633Z,4.97
2019-03-19T02:22:12.632Z,5.63
2019-03-19T02:24:41.684Z,8.47
2019-03-19T02:27:10.761Z,7.83
2019-03-19T02:29:39.749Z,7.47
2019-03-19T02:32:08.750Z,11.80
2019-03-19T02:34:37.809Z,7.30
2019-03-19T02:37:06.880Z,9.43
2019-03-19T02:39:35.924Z,9.30
2019-03-19T02:42:05.018Z,8.50
2019-03-19T02:44:34.008Z,13.10
2019-03-19T02:47:03.084Z,5.33
2019-03-19T02:49:32.170Z,3.87
2019-03-19T02:52:01.285Z,6.57
2019-03-19T02:54:30.306Z,5.50
2019-03-19T02:56:59.389Z,8.10
2019-03-19T02:59:28.453Z,9.00
2019-03-19T03:01:57.529Z,8.63
2019-03-19T03:04:26.616Z,7.07
2019-03-19T03:06:57.120Z,5.43
2019-03-19T03:09:26.178Z,3.63
2019-03-19T03:11:55.260Z,11.93
2019-03-19T03:14:24.335Z,9.20
2019-03-19T03:16:53.388Z,8.47
2019-03-19T03:19:22.460Z,7.03
2019-03-19T03:21:51.526Z,8.77
2019-03-19T03:24:20.600Z,8.53
2019-03-19T03:26:49.659Z,6.30
2019-03-19T03:29:18.960Z,4.37
2019-03-19T03:31:48.027Z,13.03
2019-03-19T03:34:17.040Z,5.67
2019-03-19T03:36:46.093Z,9.50
2019-03-19T03:39:15.172Z,6.57
2019-03-19T03:41:44.236Z,5.30
2019-03-19T03:44:13.311Z,6.30
2019-03-19T03:46:42.292Z,7.23
2019-03-19T03:49:11.317Z,10.57
2019-03-19T03:51:40.311Z,10.63
2019-03-19T03:54:09.402Z,13.53
2019-03-19T03:56:38.461Z,5.80
2019-03-19T03:59:07.546Z,11.90
2019-03-19T04:01:36.603Z,15.70
2019-03-19T04:04:05.791Z,6.10
2019-03-19T04:06:34.847Z,5.90
2019-03-19T04:09:08.843Z,5.07
2019-03-19T04:11:36.089Z,7.30
2019-03-19T04:14:05.176Z,9.73
2019-03-19T04:16:34.310Z,7.03
2019-03-19T04:19:03.398Z,5.93
2019-03-19T04:21:32.461Z,9.10
2019-03-19T04:24:01.543Z,8.60
2019-03-19T04:26:30.587Z,3.57
2019-03-19T04:28:59.666Z,9.77
2019-03-19T04:31:28.745Z,6.23
2019-03-19T04:33:57.826Z,10.13
2019-03-19T04:36:26.898Z,6.90
2019-03-19T04:38:55.903Z,7.80
2019-03-19T04:41:24.957Z,7.87
2019-03-19T04:43:54.046Z,13.03
2019-03-19T04:46:23.108Z,7.03
2019-03-19T04:48:52.062Z,8.33
2019-03-19T04:51:21.138Z,13.30
2019-03-19T04:53:50.151Z,10.80
2019-03-19T04:56:19.208Z,6.23
2019-03-19T04:58:48.266Z,6.63
2019-03-19T05:01:17.356Z,11.13
2019-03-19T05:03:46.419Z,10.07
2019-03-19T05:06:15.432Z,11.83
2019-03-19T05:08:44.423Z,12.10
2019-03-19T05:11:13.510Z,11.30
2019-03-19T05:13:42.495Z,10.63
2019-03-19T05:16:11.503Z,9.10
2019-03-19T05:18:40.564Z,9.33
2019-03-19T05:21:09.651Z,13.10
2019-03-19T05:23:38.627Z,9.53
2019-03-19T05:26:07.722Z,10.40
2019-03-19T05:28:36.794Z,10.83
2019-03-19T05:31:05.869Z,9.63
2019-03-19T05:33:34.863Z,9.93
2019-03-19T05:36:03.941Z,11.57
2019-03-19T05:38:32.928Z,10.07
2019-03-19T05:41:02.014Z,12.60
2019-03-19T05:43:31.068Z,15.93
2019-03-19T05:46:00.167Z,14.60
2019-03-19T05:48:29.177Z,6.90
2019-03-19T05:50:58.259Z,11.60
2019-03-19T05:53:27.241Z,7.97
2019-03-19T05:55:56.326Z,5.13
2019-03-19T05:58:25.316Z,12.20
2019-03-19T06:00:54.402Z,9.20
2019-03-19T06:03:23.450Z,9.20
2019-03-19T06:05:52.529Z,8.77
2019-03-19T06:08:21.594Z,10.03
2019-03-19T06:10:50.671Z,7.00
2019-03-19T06:13:19.722Z,6.10
2019-03-19T06:15:48.801Z,11.37
2019-03-19T06:18:17.793Z,8.37
2019-03-19T06:20:46.879Z,8.13
2019-03-19T06:23:15.943Z,12.03
2019-03-19T06:25:44.952Z,12.03
2019-03-19T06:28:13.942Z,12.33
2019-03-19T06:30:42.963Z,7.57
2019-03-19T06:33:11.949Z,11.47
2019-03-19T06:35:41.034Z,11.23
2019-03-19T06:38:10.095Z,11.03
2019-03-19T06:40:39.172Z,8.47
2019-03-19T06:43:08.154Z,12.70
2019-03-19T06:45:37.236Z,8.03
2019-03-19T06:48:06.324Z,11.40
2019-03-19T06:50:44.793Z,7.93
2019-03-19T06:53:06.220Z,8.47
2019-03-19T06:55:35.308Z,11.47
2019-03-19T06:58:10.938Z,8.60
2019-03-19T07:00:35.225Z,10.87
2019-03-19T07:03:04.397Z,12.73
2019-03-19T07:05:33.470Z,10.27
2019-03-19T07:08:02.529Z,11.30
2019-03-19T07:10:31.609Z,13.00
2019-03-19T07:13:00.660Z,14.33
2019-03-19T07:15:29.753Z,14.30
2019-03-19T07:17:58.743Z,13.30
2019-03-19T07:20:27.839Z,9.03
2019-03-19T07:22:56.889Z,16.97
2019-03-19T07:25:25.978Z,12.03
2019-03-19T07:27:55.113Z,13.37
2019-03-19T07:30:24.292Z,12.67
2019-03-19T07:32:53.352Z,17.20
2019-03-19T07:35:22.361Z,9.30
2019-03-19T07:37:51.412Z,15.20
2019-03-19T07:40:20.502Z,13.50
2019-03-19T07:42:49.556Z,13.30
2019-03-19T07:45:18.741Z,14.83
2019-03-19T07:47:47.800Z,16.07
2019-03-19T07:50:16.955Z,7.23
2019-03-19T07:52:46.018Z,18.07
2019-03-19T07:55:15.113Z,12.90
2019-03-19T07:57:44.179Z,12.70
2019-03-19T08:00:14.704Z,8.40
2019-03-19T08:02:43.769Z,16.03
2019-03-19T08:05:12.811Z,9.70
2019-03-19T08:07:41.885Z,9.13
2019-03-19T08:10:10.973Z,17.60
2019-03-19T08:12:40.153Z,11.37
2019-03-19T08:15:10.794Z,8.40
2019-03-19T08:17:39.930Z,11.73
2019-03-19T08:20:10.895Z,10.67
2019-03-19T08:22:39.977Z,13.67
2019-03-19T08:25:10.033Z,9.00
2019-03-19T08:27:39.042Z,9.47
2019-03-19T08:30:10.493Z,14.93
2019-03-19T08:32:39.572Z,12.93
2019-03-19T08:35:08.736Z,11.40
2019-03-19T08:37:37.820Z,7.97
2019-03-19T08:40:07.906Z,10.03
2019-03-19T08:42:36.986Z,9.77
2019-03-19T08:45:06.904Z,10.23
2019-03-19T08:47:35.835Z,10.40
2019-03-19T08:50:05.590Z,8.37
2019-03-19T08:52:34.603Z,8.50
2019-03-19T08:55:03.703Z,7.07
2019-03-19T08:57:32.784Z,9.10
2019-03-19T09:00:01.783Z,6.63
2019-03-19T09:02:30.787Z,13.43
2019-03-19T09:04:59.779Z,13.70
2019-03-19T09:07:28.857Z,8.63
2019-03-19T09:09:57.926Z,11.17
2019-03-19T09:12:26.930Z,14.30
2019-03-19T09:14:55.910Z,9.60
2019-03-19T09:17:24.923Z,9.13
2019-03-19T09:19:53.987Z,10.50
2019-03-19T09:22:23.073Z,8.83
2019-03-19T09:24:52.089Z,10.13
2019-03-19T09:27:21.167Z,7.90
2019-03-19T09:29:50.227Z,7.07
2019-03-19T09:32:19.328Z,9.47
2019-03-19T09:34:48.383Z,7.17
2019-03-19T09:37:17.473Z,7.20
2019-03-19T09:39:46.529Z,7.33
2019-03-19T09:42:15.606Z,4.80
2019-03-19T09:44:44.658Z,4.63
2019-03-19T09:47:13.750Z,7.40
2019-03-19T09:49:42.832Z,11.43
2019-03-19T09:52:11.926Z,4.70
2019-03-19T09:54:40.987Z,6.27
2019-03-19T09:57:10.066Z,5.67
2019-03-19T09:59:39.151Z,9.63
2019-03-19T10:02:08.230Z,9.30
2019-03-19T10:04:37.301Z,5.20
2019-03-19T10:07:06.676Z,7.97
2019-03-19T10:09:35.840Z,6.27
2019-03-19T10:12:04.950Z,8.17
2019-03-19T10:14:34.001Z,7.17
2019-03-19T10:17:03.084Z,8.73
2019-03-19T10:19:32.138Z,9.80
2019-03-19T10:22:01.274Z,7.43
2019-03-19T10:24:30.322Z,6.67
2019-03-19T10:26:59.327Z,10.63
2019-03-19T10:29:37.854Z,6.80
2019-03-19T10:31:59.195Z,4.53
2019-03-19T10:34:28.188Z,6.13
2019-03-19T10:36:57.304Z,10.93
2019-03-19T10:39:26.281Z,4.87
2019-03-19T10:41:55.368Z,5.33
2019-03-19T10:44:24.439Z,8.23
2019-03-19T10:46:53.443Z,8.83
2019-03-19T10:49:22.524Z,4.87
2019-03-19T10:51:51.606Z,5.23
2019-03-19T10:54:20.680Z,6.03
2019-03-19T10:56:49.767Z,6.03
2019-03-19T10:59:18.772Z,9.87
2019-03-19T11:01:47.849Z,3.53
2019-03-19T11:04:16.909Z,6.30
2019-03-19T11:06:46.003Z,7.30
2019-03-19T11:09:15.077Z,6.07
2019-03-19T11:11:44.215Z,3.60
2019-03-19T11:14:13.273Z,7.27
2019-03-19T11:16:42.344Z,5.73
2019-03-19T11:19:11.434Z,3.40
2019-03-19T11:21:40.492Z,6.30
2019-03-19T11:24:09.570Z,5.50
2019-03-19T11:26:38.553Z,5.20
2019-03-19T11:29:07.561Z,9.37
2019-03-19T11:31:36.629Z,3.53
2019-03-19T11:34:05.738Z,4.77
2019-03-19T11:36:34.803Z,4.77
2019-03-19T11:39:05.520Z,8.97
2019-03-19T11:41:34.513Z,7.60
2019-03-19T11:44:03.597Z,8.13
2019-03-19T11:46:32.673Z,12.17
2019-03-19T11:49:01.779Z,7.20
2019-03-19T11:51:30.842Z,6.40
2019-03-19T11:53:59.857Z,6.13
2019-03-19T11:56:28.915Z,7.93
2019-03-19T11:58:57.995Z,3.90
2019-03-19T12:01:27.062Z,7.47
2019-03-19T12:03:56.138Z,4.73
2019-03-19T12:06:25.191Z,7.13
2019-03-19T12:08:54.272Z,4.97
2019-03-19T12:11:23.346Z,7.80
2019-03-19T12:13:52.437Z,5.60
2019-03-19T12:16:21.438Z,2.07
2019-03-19T12:18:50.559Z,4.03
2019-03-19T12:21:19.604Z,3.60
2019-03-19T12:23:48.688Z,6.53
2019-03-19T12:26:17.754Z,5.03
2019-03-19T12:28:47.023Z,3.57
2019-03-19T12:31:16.068Z,5.33
2019-03-19T12:33:45.157Z,6.50
2019-03-19T12:36:14.155Z,4.63
2019-03-19T12:38:43.246Z,5.93
2019-03-19T12:41:12.296Z,5.87
2019-03-19T12:43:41.387Z,3.47
2019-03-19T12:46:10.459Z,4.27
2019-03-19T12:48:39.551Z,3.93
2019-03-19T12:51:08.541Z,4.73
2019-03-19T12:53:37.617Z,3.77
2019-03-19T12:56:06.677Z,3.63
2019-03-19T12:58:35.681Z,5.27
2019-03-19T13:01:04.898Z,3.97
2019-03-19T13:03:34.030Z,3.27
2019-03-19T13:06:03.027Z,5.30
2019-03-19T13:08:32.116Z,2.90
2019-03-19T13:11:01.128Z,3.40
2019-03-19T13:13:30.218Z,4.40
2019-03-19T13:15:59.282Z,3.77
2019-03-19T13:18:28.298Z,2.20
2019-03-19T13:20:57.366Z,2.73
2019-03-19T13:23:26.461Z,1.83
2019-03-19T13:25:56.821Z,2.00
2019-03-19T13:28:26.006Z,1.50
2019-03-19T13:30:55.012Z,4.80
2019-03-19T13:33:24.101Z,2.83
2019-03-19T13:35:53.162Z,2.53
2019-03-19T13:38:22.252Z,4.13
2019-03-19T13:40:51.328Z,4.43
2019-03-19T13:43:20.351Z,3.53
2019-03-19T13:45:49.417Z,3.53
2019-03-19T13:48:18.513Z,2.47
2019-03-19T13:50:47.595Z,2.37
2019-03-19T13:53:16.678Z,3.30
2019-03-19T13:55:45.749Z,1.50
2019-03-19T13:58:14.843Z,5.83
2019-03-19T14:00:43.920Z,4.30
2019-03-19T14:03:12.998Z,6.63
2019-03-19T14:05:42.056Z,4.57
2019-03-19T14:08:11.128Z,4.03
2019-03-19T14:10:40.213Z,4.30
2019-03-19T14:13:09.304Z,4.10
2019-03-19T14:15:38.352Z,4.90
2019-03-19T14:18:07.419Z,5.97
2019-03-19T14:20:36.510Z,5.87
2019-03-19T14:23:05.673Z,6.77
2019-03-19T14:25:34.690Z,3.77
2019-03-19T14:28:03.759Z,4.07
2019-03-19T14:30:32.763Z,4.73
2019-03-19T14:33:01.821Z,4.90
2019-03-19T14:35:37.267Z,5.17
2019-03-19T14:38:01.671Z,2.47
2019-03-19T14:40:30.860Z,4.20
2019-03-19T14:43:01.425Z,3.77
2019-03-19T14:45:30.706Z,3.83
2019-03-19T14:47:59.776Z,4.43
2019-03-19T14:50:28.895Z,5.63
2019-03-19T14:52:57.947Z,5.50
2019-03-19T14:55:27.034Z,4.93
2019-03-19T14:57:56.093Z,7.53
2019-03-19T15:00:25.180Z,4.53
2019-03-19T15:02:54.257Z,6.30
2019-03-19T15:05:23.339Z,2.43
2019-03-19T15:07:52.411Z,4.93
2019-03-19T15:10:21.491Z,5.63
2019-03-19T15:12:50.551Z,3.30
2019-03-19T15:15:19.648Z,3.10
2019-03-19T15:17:48.716Z,3.97
2019-03-19T15:20:18.365Z,6.83
2019-03-19T15:22:47.422Z,6.77
2019-03-19T15:25:16.505Z,2.93
2019-03-19T15:27:45.567Z,3.67
2019-03-19T15:30:14.840Z,5.10
2019-03-19T15:32:43.923Z,4.00
2019-03-19T15:35:13.006Z,5.20
2019-03-19T15:37:42.053Z,4.30
2019-03-19T15:40:12.456Z,2.23
2019-03-19T15:42:41.512Z,4.30
2019-03-19T15:45:11.459Z,4.50
2019-03-19T15:47:40.513Z,4.70
2019-03-19T15:50:12.006Z,2.73
2019-03-19T15:52:41.061Z,4.23
2019-03-19T15:55:11.063Z,3.87
2019-03-19T15:57:40.099Z,2.97
2019-03-19T16:00:12.500Z,2.37
2019-03-19T16:02:41.555Z,5.10
2019-03-19T16:05:11.101Z,3.33
2019-03-19T16:07:40.180Z,3.50
2019-03-19T16:10:09.590Z,1.87
2019-03-19T16:12:38.657Z,2.07
2019-03-19T16:15:08.803Z,3.53
2019-03-19T16:17:37.870Z,2.33
2019-03-19T16:20:08.630Z,4.13
2019-03-19T16:22:37.689Z,3.63
2019-03-19T16:25:06.921Z,3.53
2019-03-19T16:27:35.911Z,1.80
2019-03-19T16:30:05.642Z,2.50
2019-03-19T16:32:34.716Z,2.77
2019-03-19T16:35:03.903Z,2.93
2019-03-19T16:37:58.533Z,3.20
2019-03-19T16:40:27.611Z,2.10
2019-03-19T16:42:56.672Z,2.53
2019-03-19T16:45:25.756Z,1.53
2019-03-19T16:47:54.812Z,2.67
2019-03-19T16:50:23.941Z,1.87
2019-03-19T16:52:53.010Z,2.43
2019-03-19T16:55:22.094Z,3.63
2019-03-19T16:57:51.155Z,2.73
2019-03-19T17:00:20.256Z,1.93
2019-03-19T17:02:49.249Z,2.27
2019-03-19T17:05:18.380Z,2.20
2019-03-19T17:07:47.433Z,0.93
2019-03-19T17:10:16.949Z,0.80
2019-03-19T17:12:46.009Z,0.90
2019-03-19T17:15:15.495Z,0.80
2019-03-19T17:17:44.594Z,1.17
2019-03-19T17:20:13.739Z,1.03
2019-03-19T17:22:42.802Z,0.90
2019-03-19T17:25:13.475Z,1.03
2019-03-19T17:27:42.632Z,0.60
2019-03-19T17:30:17.615Z,0.90
2019-03-19T17:32:46.687Z,0.70
2019-03-19T17:35:15.780Z,0.80
2019-03-19T17:38:02.580Z,0.70
2019-03-19T17:40:40.983Z,1.17
2019-03-19T17:43:02.442Z,0.80
2019-03-19T17:45:31.536Z,1.00
2019-03-19T17:48:00.657Z,0.83
2019-03-19T17:50:29.651Z,1.30
2019-03-19T17:52:58.647Z,0.70
2019-03-19T17:55:27.657Z,1.10
2019-03-19T17:57:56.724Z,0.70
2019-03-19T18:00:26.846Z,0.60
2019-03-19T18:02:55.908Z,0.70
2019-03-19T18:05:24.999Z,0.80
2019-03-19T18:07:54.063Z,0.97
2019-03-19T18:10:23.147Z,1.40
2019-03-19T18:12:52.208Z,1.53
2019-03-19T18:15:21.299Z,0.90
2019-03-19T18:17:50.355Z,1.30
2019-03-19T18:20:19.444Z,1.43
2019-03-19T18:22:48.510Z,1.23
2019-03-19T18:25:17.601Z,1.10
2019-03-19T18:27:46.677Z,0.80
2019-03-19T18:30:16.271Z,0.90
2019-03-19T18:32:45.370Z,1.13
2019-03-19T18:35:14.427Z,1.50
2019-03-19T18:37:43.515Z,0.80
2019-03-19T18:40:12.585Z,0.93
2019-03-19T18:42:41.692Z,1.00
2019-03-19T18:45:11.177Z,1.53
2019-03-19T18:47:40.255Z,1.63
2019-03-19T18:50:11.385Z,3.47
2019-03-19T18:52:40.469Z,1.97
2019-03-19T18:55:09.684Z,1.60
2019-03-19T18:57:41.334Z,1.53
2019-03-19T19:00:12.056Z,1.57
2019-03-19T19:02:49.787Z,1.80
2019-03-19T19:05:12.409Z,1.00
2019-03-19T19:07:41.498Z,1.07
2019-03-19T19:10:11.251Z,1.30
2019-03-19T19:12:40.349Z,1.10
2019-03-19T19:15:11.346Z,1.33
2019-03-19T19:17:40.428Z,1.20
2019-03-19T19:20:10.364Z,1.00
2019-03-19T19:22:39.452Z,1.07
2019-03-19T19:25:10.289Z,1.10
2019-03-19T19:27:39.383Z,1.13
2019-03-19T19:30:11.244Z,1.00
2019-03-19T19:32:40.337Z,1.20
2019-03-19T19:35:09.393Z,0.90
2019-03-19T19:37:38.506Z,1.07
2019-03-19T19:40:09.166Z,3.23
2019-03-19T19:42:38.241Z,4.03
2019-03-19T19:45:07.589Z,2.00
2019-03-19T19:47:36.670Z,1.63
2019-03-19T19:50:07.693Z,1.93
2019-03-19T19:52:36.778Z,1.40
2019-03-19T19:55:06.081Z,2.00
2019-03-19T19:57:35.218Z,1.73
2019-03-19T20:00:05.050Z,1.20
2019-03-19T20:02:34.135Z,2.47
2019-03-19T20:05:03.766Z,1.27
2019-03-19T20:07:32.967Z,1.00
2019-03-19T20:10:02.011Z,2.03
2019-03-19T20:12:31.013Z,1.10
2019-03-19T20:15:00.011Z,0.93
2019-03-19T20:17:29.150Z,1.37
2019-03-19T20:19:58.195Z,3.57
2019-03-19T20:22:27.276Z,0.90
2019-03-19T20:24:56.338Z,2.07
2019-03-19T20:27:25.411Z,1.67
2019-03-19T20:29:54.464Z,1.17
2019-03-19T20:32:23.540Z,0.90
2019-03-19T20:34:52.600Z,1.53
2019-03-19T20:37:21.616Z,1.30
2019-03-19T20:39:50.683Z,1.10
2019-03-19T20:42:19.770Z,0.80
2019-03-19T20:44:48.831Z,1.60
2019-03-19T20:47:17.905Z,2.23
2019-03-19T20:49:48.016Z,1.37
2019-03-19T20:52:17.288Z,1.07
2019-03-19T20:54:46.353Z,1.67
2019-03-19T20:57:15.426Z,1.57
2019-03-19T20:59:44.496Z,3.57
2019-03-19T21:02:13.566Z,0.97
2019-03-19T21:04:42.654Z,1.17
2019-03-19T21:07:11.618Z,0.90
2019-03-19T21:09:40.695Z,1.00
2019-03-19T21:12:09.744Z,1.27
2019-03-19T21:14:38.815Z,1.27
2019-03-19T21:17:07.885Z,1.00
2019-03-19T21:19:37.014Z,0.97
2019-03-19T21:22:06.019Z,1.03
2019-03-19T21:24:35.095Z,0.83
2019-03-19T21:27:04.165Z,1.27
2019-03-19T21:29:33.252Z,0.93
2019-03-19T21:32:02.306Z,1.27
2019-03-19T21:34:31.386Z,1.10
2019-03-19T21:37:00.443Z,1.00
2019-03-19T21:39:29.534Z,1.47
2019-03-19T21:41:58.587Z,1.53
2019-03-19T21:44:27.604Z,1.20
2019-03-19T21:46:56.673Z,2.50
2019-03-19T21:49:25.772Z,1.50
2019-03-19T21:51:54.841Z,2.13
2019-03-19T21:54:23.850Z,1.20
2019-03-19T21:56:52.903Z,2.87
2019-03-19T21:59:21.984Z,1.37
2019-03-19T22:01:51.039Z,1.27
2019-03-19T22:04:20.117Z,1.83
2019-03-19T22:06:49.088Z,1.43
2019-03-19T22:09:18.173Z,1.77
2019-03-19T22:11:47.232Z,1.10
2019-03-19T22:14:16.242Z,1.80
2019-03-19T22:16:45.293Z,1.00
2019-03-19T22:19:14.379Z,0.90
2019-03-19T22:21:43.447Z,1.50
2019-03-19T22:24:12.537Z,0.93
2019-03-19T22:26:41.598Z,1.23
2019-03-19T22:29:12.623Z,1.10
2019-03-19T22:31:41.460Z,2.40
2019-03-19T22:34:14.305Z,1.30
2019-03-19T22:36:41.325Z,1.40
2019-03-19T22:39:10.412Z,1.47
2019-03-19T22:41:39.473Z,1.00
2019-03-19T22:44:08.538Z,1.47
2019-03-19T22:46:37.604Z,2.07
2019-03-19T22:49:06.720Z,4.13
2019-03-19T22:51:35.697Z,2.13
2019-03-19T22:54:04.886Z,1.80
2019-03-19T22:56:34.126Z,1.53
2019-03-19T22:59:03.213Z,1.40
2019-03-19T23:01:32.280Z,1.50
2019-03-19T23:04:01.351Z,1.20
2019-03-19T23:06:30.419Z,1.37
2019-03-19T23:08:59.492Z,1.30
2019-03-19T23:11:28.559Z,1.40
2019-03-19T23:13:57.633Z,5.63
2019-03-19T23:16:26.678Z,2.03
2019-03-19T23:18:55.767Z,3.00
2019-03-19T23:21:24.823Z,2.30
2019-03-19T23:23:53.900Z,3.03
2019-03-19T23:26:22.969Z,1.50
2019-03-19T23:28:52.028Z,1.87
2019-03-19T23:31:21.090Z,2.30
2019-03-19T23:33:50.171Z,1.90
2019-03-19T23:36:19.233Z,2.33
2019-03-19T23:38:48.244Z,1.70
2019-03-19T23:41:17.307Z,6.23
2019-03-19T23:43:46.316Z,5.97
2019-03-19T23:46:15.378Z,3.70
2019-03-19T23:48:44.408Z,4.37
2019-03-19T23:51:13.410Z,5.60
2019-03-19T23:53:42.411Z,3.67
2019-03-19T23:56:11.486Z,5.30
2019-03-19T23:58:40.552Z,4.53
